Time;durP1;ratioP1;P1;durP2;ratioP2;P2;SDS_P1;SDS_P2;PMS_P1;PMS_P2;Temp;Humidity;BMP_temperature;BMP_pressure;BME280_temperature;BME280_humidity;BME280_pressure;Samples;Min_cycle;Max_cycle;Signal;HPM_P1;HPM_P2
2022/05/17 00:02:09;;;;;;;1999.90;999.90;;;14.30;99.90;;;;;;4956468;28;20044;-72
2022/05/17 00:04:35;;;;;;;1999.90;999.90;;;14.20;99.90;;;;;;4973506;28;20049;-72
2022/05/17 00:07:05;;;;;;;1999.90;999.90;;;14.20;99.90;;;;;;4963568;28;20368;-72
2022/05/17 00:09:31;;;;;;;1999.90;999.90;;;14.20;99.90;;;;;;4964963;28;20141;-72
2022/05/17 00:11:59;;;;;;;1999.90;999.90;;;14.10;99.90;;;;;;4950667;28;20051;-72
2022/05/17 00:14:24;;;;;;;1999.90;999.90;;;14.10;99.90;;;;;;4975029;28;20056;-72
2022/05/17 00:16:51;;;;;;;1999.90;999.90;;;14.10;99.90;;;;;;4947292;28;20035;-72
2022/05/17 00:19:19;;;;;;;1999.90;999.90;;;14.00;99.90;;;;;;4935385;28;20038;-72
2022/05/17 00:21:45;;;;;;;1999.90;999.90;;;14.00;99.90;;;;;;4946571;28;20820;-72
2022/05/17 00:24:12;;;;;;;1999.90;999.90;;;14.00;99.90;;;;;;4953338;28;20433;-72
2022/05/17 00:26:38;;;;;;;1999.90;999.90;;;14.00;99.90;;;;;;4955103;28;20051;-72
2022/05/17 00:29:04;;;;;;;1999.90;999.90;;;13.90;99.90;;;;;;4962876;28;20097;-72
2022/05/17 00:31:30;;;;;;;1999.90;999.90;;;13.90;99.90;;;;;;4933294;28;20458;-72
2022/05/17 00:33:56;;;;;;;1999.90;999.90;;;13.90;99.90;;;;;;4948588;28;20050;-72
2022/05/17 00:36:22;;;;;;;1999.90;999.90;;;13.90;99.90;;;;;;4950275;28;20413;-72
2022/05/17 00:38:48;;;;;;;1999.90;999.90;;;13.90;99.90;;;;;;4944677;28;20041;-72
2022/05/17 00:41:14;;;;;;;1999.90;999.90;;;13.80;99.90;;;;;;4936453;28;20487;-72
2022/05/17 00:47:06;;;;;;;1999.90;999.90;;;13.80;99.90;;;;;;4965747;28;20047;-72
2022/05/17 00:49:37;;;;;;;1999.90;999.90;;;13.80;99.90;;;;;;5001289;28;20059;-72
2022/05/17 00:52:10;;;;;;;1999.90;999.90;;;13.70;99.90;;;;;;4948709;28;20097;-72
2022/05/17 00:54:36;;;;;;;;;;;13.70;99.90;;;;;;4945930;28;20090;-72
2022/05/17 00:57:09;;;;;;;1999.90;999.90;;;13.70;99.90;;;;;;4930572;28;20016;-72
2022/05/17 00:59:37;;;;;;;1999.90;999.90;;;13.60;99.90;;;;;;4963243;28;20418;-72
2022/05/17 01:02:07;;;;;;;1999.90;999.90;;;13.60;99.90;;;;;;4945609;28;20503;-72
2022/05/17 01:04:33;;;;;;;1999.90;999.90;;;13.50;99.90;;;;;;4946610;28;20043;-72
2022/05/17 01:07:04;;;;;;;1999.90;999.90;;;13.50;99.90;;;;;;4952551;28;20050;-72
2022/05/17 01:09:30;;;;;;;1999.90;999.90;;;13.50;99.90;;;;;;4949515;28;20108;-72
2022/05/17 01:11:55;;;;;;;1999.90;999.90;;;13.50;99.90;;;;;;4956919;28;20059;-72
2022/05/17 01:17:06;;;;;;;1999.90;999.90;;;13.50;99.90;;;;;;4955436;28;20424;-72
2022/05/17 01:19:32;;;;;;;1999.90;999.90;;;13.50;99.90;;;;;;4932542;28;20047;-72
2022/05/17 01:21:58;;;;;;;1999.90;999.90;;;13.40;99.90;;;;;;4990860;28;20081;-72
2022/05/17 01:24:25;;;;;;;1999.90;999.90;;;13.50;99.90;;;;;;4953253;28;20038;-72
2022/05/17 01:27:01;;;;;;;1999.90;999.90;;;13.50;99.90;;;;;;4994413;28;20039;-72
2022/05/17 01:29:27;;;;;;;1999.90;999.90;;;13.50;99.90;;;;;;4967680;28;20039;-72
2022/05/17 01:31:53;;;;;;;1999.90;999.90;;;13.40;99.90;;;;;;5000385;28;20039;-72
2022/05/17 01:34:19;;;;;;;1999.90;999.90;;;13.50;99.90;;;;;;4965794;28;20122;-72
2022/05/17 01:36:45;;;;;;;1999.90;999.90;;;13.40;99.90;;;;;;4977643;28;20047;-72
2022/05/17 01:39:11;;;;;;;1999.90;999.90;;;13.40;99.90;;;;;;4933555;28;20130;-72
2022/05/17 01:41:37;;;;;;;1999.90;999.90;;;13.40;99.90;;;;;;4935546;28;20049;-72
2022/05/17 01:44:03;;;;;;;1999.90;999.90;;;13.40;99.90;;;;;;4952195;28;20043;-72
2022/05/17 01:46:29;;;;;;;1999.90;999.90;;;13.30;99.90;;;;;;4968703;28;20410;-72
2022/05/17 01:48:55;;;;;;;1999.90;999.90;;;13.30;99.90;;;;;;4968929;28;20050;-72
2022/05/17 01:51:21;;;;;;;1999.90;999.90;;;13.30;99.90;;;;;;4950821;28;20134;-72
2022/05/17 01:53:47;;;;;;;1999.90;999.90;;;13.20;99.90;;;;;;4965028;28;20051;-72
2022/05/17 01:56:13;;;;;;;1999.90;999.90;;;13.20;99.90;;;;;;4949771;28;20109;-72
2022/05/17 01:58:38;;;;;;;1999.90;999.90;;;13.20;99.90;;;;;;4966181;28;20133;-72
2022/05/17 02:01:07;;;;;;;1999.90;999.90;;;13.20;99.90;;;;;;4968409;28;20095;-72
2022/05/17 02:03:33;;;;;;;1999.90;999.90;;;13.10;99.90;;;;;;4983657;28;20047;-72
2022/05/17 02:05:59;;;;;;;1999.90;999.90;;;13.10;99.90;;;;;;4953610;28;20129;-72
2022/05/17 02:08:24;;;;;;;1999.90;999.90;;;13.10;99.90;;;;;;4968657;28;20133;-72
2022/05/17 02:10:50;;;;;;;1999.90;999.90;;;13.10;99.90;;;;;;4965569;28;20043;-72
2022/05/17 02:13:18;;;;;;;1999.90;999.90;;;13.10;99.90;;;;;;4945780;28;20100;-72
2022/05/17 02:15:43;;;;;;;1999.90;999.90;;;13.00;99.90;;;;;;4984240;28;20043;-72
2022/05/17 02:18:09;;;;;;;1999.90;999.90;;;13.00;99.90;;;;;;4983988;28;20043;-72
2022/05/17 02:20:35;;;;;;;1999.90;999.90;;;13.00;99.90;;;;;;4939144;28;20051;-72
2022/05/17 02:23:00;;;;;;;1999.90;999.90;;;13.00;99.90;;;;;;4933087;28;20043;-72
2022/05/17 02:25:27;;;;;;;1999.90;999.90;;;13.00;99.90;;;;;;4961007;28;20047;-72
2022/05/17 02:27:52;;;;;;;1999.90;999.90;;;13.00;99.90;;;;;;4982519;28;20092;-72
2022/05/17 02:30:18;;;;;;;1999.90;999.90;;;13.00;99.90;;;;;;4951665;28;20473;-72
2022/05/17 02:32:44;;;;;;;1999.90;999.90;;;12.90;99.90;;;;;;4975485;28;20773;-72
2022/05/17 02:35:12;;;;;;;1999.90;999.90;;;12.90;99.90;;;;;;4939079;28;20078;-72
2022/05/17 02:37:38;;;;;;;1999.90;999.90;;;12.90;99.90;;;;;;4963571;28;20042;-72
2022/05/17 02:40:05;;;;;;;1999.90;999.90;;;12.90;99.90;;;;;;4947864;28;20061;-72
2022/05/17 02:42:31;;;;;;;1999.90;999.90;;;12.90;99.90;;;;;;4983327;28;20035;-72
2022/05/17 02:44:56;;;;;;;1999.90;999.90;;;12.90;99.90;;;;;;4981235;28;20075;-72
2022/05/17 02:47:22;;;;;;;1999.90;999.90;;;12.90;99.90;;;;;;4949657;28;20399;-72
2022/05/17 02:49:48;;;;;;;1999.90;999.90;;;12.90;99.90;;;;;;4966686;28;20096;-72
2022/05/17 02:52:14;;;;;;;1999.90;999.90;;;12.90;99.90;;;;;;4948435;28;20105;-72
2022/05/17 02:54:39;;;;;;;1999.90;999.90;;;13.00;99.90;;;;;;4950380;28;20447;-72
2022/05/17 02:57:06;;;;;;;1999.90;999.90;;;13.00;99.90;;;;;;4966116;28;20104;-72
2022/05/17 02:59:32;;;;;;;1999.90;999.90;;;13.00;99.90;;;;;;4950080;28;20043;-72
2022/05/17 03:01:59;;;;;;;1999.90;999.90;;;13.10;99.90;;;;;;4966908;28;20037;-72
2022/05/17 03:04:26;;;;;;;1999.90;999.90;;;13.10;99.90;;;;;;4965231;28;20053;-72
2022/05/17 03:06:53;;;;;;;1999.90;999.90;;;13.10;99.90;;;;;;4950634;28;20463;-73
2022/05/17 03:09:19;;;;;;;1999.90;999.90;;;13.10;99.90;;;;;;4983451;28;20068;-72
2022/05/17 03:11:45;;;;;;;1999.90;999.90;;;13.20;99.90;;;;;;4996926;28;20046;-73
2022/05/17 03:14:12;;;;;;;1999.90;999.90;;;13.20;99.90;;;;;;4992845;28;20466;-72
2022/05/17 03:16:39;;;;;;;1999.90;999.90;;;13.10;99.90;;;;;;4934913;28;20043;-73
2022/05/17 03:19:06;;;;;;;1999.90;999.90;;;13.10;99.90;;;;;;4960966;28;20124;-72
2022/05/17 03:21:31;;;;;;;1999.90;999.90;;;13.10;99.90;;;;;;4996597;28;20047;-72
2022/05/17 03:23:57;;;;;;;1999.90;999.90;;;13.20;99.90;;;;;;4965683;28;20043;-72
2022/05/17 03:26:23;;;;;;;1999.90;999.90;;;13.20;99.90;;;;;;4966180;28;20061;-72
2022/05/17 03:28:48;;;;;;;1999.90;999.90;;;13.20;99.90;;;;;;4966771;28;20074;-72
2022/05/17 03:31:14;;;;;;;1999.90;999.90;;;13.20;99.90;;;;;;4950703;28;20134;-72
2022/05/17 03:33:40;;;;;;;1999.90;999.90;;;13.20;99.90;;;;;;4947744;28;20042;-72
2022/05/17 03:36:07;;;;;;;1999.90;999.90;;;13.20;99.90;;;;;;4960101;28;20133;-72
2022/05/17 03:38:34;;;;;;;1999.90;999.90;;;13.20;99.90;;;;;;4949895;28;20066;-73
2022/05/17 03:41:00;;;;;;;1999.90;999.90;;;13.20;99.90;;;;;;4954791;28;20126;-72
2022/05/17 03:43:27;;;;;;;1999.90;999.90;;;13.30;99.90;;;;;;4962680;28;20039;-73
2022/05/17 03:45:53;;;;;;;1999.90;999.90;;;13.20;99.90;;;;;;4931507;28;20163;-72
2022/05/17 03:48:19;;;;;;;1999.90;999.90;;;13.30;99.90;;;;;;4948959;28;20108;-72
2022/05/17 03:50:45;;;;;;;1999.90;999.90;;;13.20;99.90;;;;;;4947274;28;20565;-72
2022/05/17 03:53:11;;;;;;;1999.90;999.90;;;13.20;99.90;;;;;;4976515;28;20042;-72
2022/05/17 03:55:37;;;;;;;1999.90;999.90;;;13.30;99.90;;;;;;4966625;28;20050;-72
2022/05/17 03:58:02;;;;;;;1999.90;999.90;;;13.30;99.90;;;;;;4978277;28;20046;-72
2022/05/17 04:00:28;;;;;;;1999.90;999.90;;;13.40;99.90;;;;;;4950414;28;20049;-72
2022/05/17 04:02:54;;;;;;;1999.90;999.90;;;13.30;99.90;;;;;;4965906;28;20119;-72
2022/05/17 04:05:20;;;;;;;1999.90;999.90;;;13.40;99.90;;;;;;4966055;28;20077;-72
2022/05/17 04:07:46;;;;;;;1999.90;999.90;;;13.50;99.90;;;;;;4981758;28;20045;-72
2022/05/17 04:10:13;;;;;;;1999.90;999.90;;;13.60;99.90;;;;;;4948500;28;20043;-72
2022/05/17 04:12:39;;;;;;;1999.90;999.90;;;13.60;99.90;;;;;;4997355;28;20046;-72
2022/05/17 04:15:07;;;;;;;1999.90;999.90;;;13.70;99.90;;;;;;4949900;28;20046;-72
2022/05/17 04:17:32;;;;;;;1999.90;999.90;;;13.90;99.90;;;;;;4984563;28;20417;-72
2022/05/17 04:19:59;;;;;;;1999.90;999.90;;;14.10;99.90;;;;;;4941858;28;20041;-72
2022/05/17 04:22:25;;;;;;;1999.90;999.90;;;14.10;99.90;;;;;;4939621;28;20073;-72
2022/05/17 04:24:54;;;;;;;1999.90;999.90;;;14.20;99.90;;;;;;4949458;28;20035;-72
2022/05/17 04:27:19;;;;;;;1999.90;999.90;;;14.20;99.90;;;;;;4989404;28;20054;-72
2022/05/17 04:29:45;;;;;;;1999.90;999.90;;;14.30;99.90;;;;;;4962956;28;20038;-72
2022/05/17 04:32:10;;;;;;;1999.90;999.90;;;14.40;99.90;;;;;;4949644;28;20049;-72
2022/05/17 04:34:36;;;;;;;1999.90;999.90;;;14.40;99.90;;;;;;4965991;28;20073;-72
2022/05/17 04:37:02;;;;;;;1999.90;999.90;;;14.50;99.90;;;;;;4948002;28;20075;-72
2022/05/17 04:39:28;;;;;;;1999.90;999.90;;;14.60;99.90;;;;;;4950008;28;20031;-72
2022/05/17 04:41:54;;;;;;;1999.90;999.90;;;14.70;99.90;;;;;;4948299;28;20030;-72
2022/05/17 04:44:20;;;;;;;1999.90;999.90;;;14.80;99.90;;;;;;4964701;28;20568;-72
2022/05/17 04:46:45;;;;;;;1999.90;999.90;;;14.80;99.90;;;;;;4965361;28;20051;-72
2022/05/17 04:49:11;;;;;;;1999.90;999.90;;;14.90;99.90;;;;;;4945005;28;20510;-72
2022/05/17 04:51:36;;;;;;;1999.90;999.90;;;15.00;99.90;;;;;;4947565;28;20058;-72
2022/05/17 04:54:02;;;;;;;1999.90;999.90;;;15.00;99.90;;;;;;4965383;28;20462;-72
2022/05/17 04:56:28;;;;;;;1999.90;999.90;;;15.10;99.90;;;;;;4944903;28;20043;-73
2022/05/17 04:58:54;;;;;;;1999.90;999.90;;;15.10;99.90;;;;;;4980144;28;20043;-72
2022/05/17 05:01:21;;;;;;;1999.90;999.90;;;15.10;99.90;;;;;;4943220;28;20064;-72
2022/05/17 05:03:47;;;;;;;1999.90;999.90;;;15.00;99.90;;;;;;4981017;28;20502;-72
2022/05/17 05:06:12;;;;;;;1999.90;999.90;;;15.00;99.90;;;;;;4949878;28;20105;-72
2022/05/17 05:08:38;;;;;;;1999.90;999.90;;;15.00;99.90;;;;;;4949062;28;20490;-72
2022/05/17 05:11:04;;;;;;;1999.90;999.90;;;15.00;99.90;;;;;;4937742;28;20078;-72
2022/05/17 05:13:29;;;;;;;1999.90;999.90;;;15.00;99.90;;;;;;4957112;28;20122;-72
2022/05/17 05:15:55;;;;;;;1999.90;999.90;;;14.90;99.90;;;;;;4960978;28;20510;-73
2022/05/17 05:18:21;;;;;;;1999.90;999.90;;;15.00;99.90;;;;;;4962798;28;20051;-72
2022/05/17 05:20:47;;;;;;;1999.90;999.90;;;15.00;99.90;;;;;;4946365;28;20047;-72
2022/05/17 05:23:13;;;;;;;1999.90;999.90;;;15.10;99.90;;;;;;4942386;28;20052;-72
2022/05/17 05:25:39;;;;;;;1999.90;999.90;;;15.10;99.90;;;;;;4981151;28;20491;-73
2022/05/17 05:28:09;;;;;;;1999.90;999.90;;;15.20;99.90;;;;;;4957637;28;20078;-73
2022/05/17 05:30:36;;;;;;;1999.90;999.90;;;15.20;99.90;;;;;;4996202;28;20094;-72
2022/05/17 05:33:01;;;;;;;1999.90;999.90;;;15.40;99.90;;;;;;4954936;28;20437;-72
2022/05/17 05:35:28;;;;;;;1999.90;999.90;;;15.80;99.90;;;;;;4937779;28;20400;-72
2022/05/17 05:37:54;;;;;;;1999.90;999.90;;;16.70;99.90;;;;;;4958745;28;20123;-73
2022/05/17 05:40:21;;;;;;;1999.90;999.90;;;17.50;99.90;;;;;;4957553;28;20045;-72
2022/05/17 05:42:51;;;;;;;1999.90;999.90;;;18.30;99.90;;;;;;4969259;28;20039;-72
2022/05/17 05:45:17;;;;;;;1999.90;999.90;;;18.90;99.90;;;;;;4988245;28;20057;-72
2022/05/17 05:47:42;;;;;;;1999.90;999.90;;;19.70;99.90;;;;;;4946552;28;20558;-73
2022/05/17 05:50:09;;;;;;;1999.90;999.90;;;20.30;99.90;;;;;;4955791;28;20077;-72
2022/05/17 05:52:35;;;;;;;1999.90;999.90;;;20.70;99.90;;;;;;4962127;28;20112;-73
2022/05/17 05:55:00;;;;;;;1999.90;999.90;;;21.00;99.90;;;;;;4943381;28;20047;-73
2022/05/17 05:57:27;;;;;;;1999.90;999.90;;;21.30;99.90;;;;;;4963025;28;20410;-73
2022/05/17 05:59:52;;;;;;;1999.90;999.90;;;21.00;99.90;;;;;;4948496;28;20042;-72
2022/05/17 06:02:19;;;;;;;1999.90;999.90;;;20.60;99.90;;;;;;4963044;28;20046;-73
2022/05/17 06:04:45;;;;;;;1999.90;999.90;;;20.50;99.90;;;;;;4938020;28;20138;-73
2022/05/17 06:07:10;;;;;;;1999.90;999.90;;;20.70;99.90;;;;;;4950926;28;20138;-73
2022/05/17 06:09:36;;;;;;;1999.90;999.90;;;20.80;99.90;;;;;;4951058;28;20038;-73
2022/05/17 06:12:02;;;;;;;1999.90;999.90;;;20.90;99.90;;;;;;4951591;28;20125;-73
2022/05/17 06:14:29;;;;;;;1999.90;999.90;;;20.70;99.90;;;;;;4951660;28;20536;-73
2022/05/17 06:16:55;;;;;;;1999.90;999.90;;;20.70;99.90;;;;;;4958669;28;20122;-73
2022/05/17 06:19:23;;;;;;;1999.90;999.90;;;20.70;99.90;;;;;;4938522;28;20451;-73
2022/05/17 06:21:49;;;;;;;1999.90;999.90;;;20.70;99.90;;;;;;5003808;28;20487;-73
2022/05/17 06:24:16;;;;;;;1999.90;999.90;;;20.80;99.90;;;;;;4956004;28;20479;-73
2022/05/17 06:26:42;;;;;;;1999.90;999.90;;;21.00;99.90;;;;;;4953302;28;20047;-73
2022/05/17 06:29:07;;;;;;;1999.90;999.90;;;21.00;99.90;;;;;;4942770;28;20039;-73
2022/05/17 06:31:33;;;;;;;1999.90;999.90;;;20.90;99.90;;;;;;4946424;28;20721;-73
2022/05/17 06:33:59;;;;;;;1999.90;999.90;;;20.90;99.90;;;;;;4962803;28;20031;-74
2022/05/17 06:36:25;;;;;;;1999.90;999.90;;;20.80;99.90;;;;;;4957619;28;20513;-74
2022/05/17 06:38:50;;;;;;;1999.90;999.90;;;20.70;99.90;;;;;;4954056;28;20130;-73
2022/05/17 06:41:16;;;;;;;1999.90;999.90;;;20.70;99.90;;;;;;4947923;28;20088;-73
2022/05/17 06:43:42;;;;;;;1999.90;999.90;;;21.00;99.90;;;;;;4951552;28;20130;-74
2022/05/17 06:46:08;;;;;;;1999.90;999.90;;;21.20;99.90;;;;;;4965420;28;20046;-74
2022/05/17 06:48:33;;;;;;;1999.90;999.90;;;21.30;99.90;;;;;;4959086;28;20045;-73
2022/05/17 06:51:07;;;;;;;1999.90;999.90;;;21.50;99.90;;;;;;4962926;28;20530;-73
2022/05/17 06:53:33;;;;;;;1999.90;999.90;;;21.50;99.90;;;;;;4971317;28;20138;-74
2022/05/17 06:55:59;;;;;;;1999.90;999.90;;;21.50;99.90;;;;;;4963610;28;20467;-74
2022/05/17 06:58:28;;;;;;;1999.90;999.90;;;21.60;99.90;;;;;;4984496;28;20116;-74
2022/05/17 07:00:55;;;;;;;1999.90;999.90;;;22.00;99.90;;;;;;4981641;28;20075;-74
2022/05/17 07:03:21;;;;;;;1999.90;999.90;;;22.40;99.90;;;;;;4985386;28;20419;-74
2022/05/17 07:05:47;;;;;;;1999.90;999.90;;;22.80;99.90;;;;;;4970850;28;20047;-74
2022/05/17 07:08:12;;;;;;;1999.90;999.90;;;23.30;99.90;;;;;;4947206;28;20057;-74
2022/05/17 07:13:22;;;;;;;1999.90;999.90;;;23.70;99.90;;;;;;4972179;28;20039;-74
2022/05/17 07:15:49;;;;;;;1999.90;999.90;;;23.60;99.90;;;;;;4958950;28;20046;-74
2022/05/17 07:18:18;;;;;;;1999.90;999.90;;;23.70;99.90;;;;;;4930914;28;20092;-74
2022/05/17 07:20:44;;;;;;;1999.90;999.90;;;23.80;99.90;;;;;;4953474;28;20039;-74
2022/05/17 07:23:15;;;;;;;1999.90;999.90;;;23.80;99.90;;;;;;4957748;28;20039;-74
2022/05/17 07:25:42;;;;;;;1999.90;999.90;;;24.00;99.90;;;;;;4947999;28;20543;-74
2022/05/17 07:28:09;;;;;;;1999.90;999.90;;;24.10;99.90;;;;;;4990355;28;20126;-74
2022/05/17 07:30:35;;;;;;;1999.90;999.90;;;24.00;99.90;;;;;;4962108;28;20054;-74
2022/05/17 07:33:01;;;;;;;1999.90;999.90;;;23.70;99.90;;;;;;4967393;28;20047;-74
2022/05/17 07:35:27;;;;;;;1999.90;999.90;;;23.60;99.90;;;;;;4942783;28;20043;-74
2022/05/17 07:37:53;;;;;;;1999.90;999.90;;;23.70;99.90;;;;;;4965024;28;20054;-74
2022/05/17 07:40:19;;;;;;;1999.90;999.90;;;23.40;99.90;;;;;;4961929;28;20058;-74
2022/05/17 07:42:45;;;;;;;1999.90;999.90;;;22.90;99.90;;;;;;4956034;28;20035;-74
2022/05/17 07:45:13;;;;;;;1999.90;999.90;;;22.30;99.90;;;;;;4967113;28;20042;-73
2022/05/17 07:47:39;;;;;;;1999.90;999.90;;;21.90;99.90;;;;;;4963190;28;20051;-73
2022/05/17 07:50:06;;;;;;;1999.90;999.90;;;21.70;99.90;;;;;;4950491;28;20424;-73
2022/05/17 07:52:32;;;;;;;1999.90;999.90;;;21.40;99.90;;;;;;4966926;28;20120;-73
2022/05/17 07:54:59;;;;;;;1999.90;999.90;;;21.30;99.90;;;;;;4944605;28;20051;-73
2022/05/17 07:57:25;;;;;;;1999.90;999.90;;;21.20;99.90;;;;;;4965485;28;20054;-73
2022/05/17 07:59:51;;;;;;;1999.90;999.90;;;21.00;99.90;;;;;;4948924;28;20134;-73
2022/05/17 08:02:18;;;;;;;1999.90;999.90;;;21.10;99.90;;;;;;4973679;28;20134;-73
2022/05/17 08:04:43;;;;;;;1999.90;999.90;;;21.10;99.90;;;;;;4987154;28;20085;-73
2022/05/17 08:07:09;;;;;;;1999.90;999.90;;;21.10;99.90;;;;;;4965626;28;20039;-73
2022/05/17 08:09:35;;;;;;;1999.90;999.90;;;21.10;99.90;;;;;;4948295;28;20108;-73
2022/05/17 08:12:03;;;;;;;1999.90;999.90;;;21.00;99.90;;;;;;4983294;28;20043;-73
2022/05/17 08:14:28;;;;;;;1999.90;999.90;;;20.90;99.90;;;;;;4943321;28;20079;-73
2022/05/17 08:16:54;;;;;;;1999.90;999.90;;;20.90;99.90;;;;;;4959575;28;20054;-73
2022/05/17 08:19:19;;;;;;;1999.90;999.90;;;20.80;99.90;;;;;;4949534;28;20124;-73
2022/05/17 08:21:45;;;;;;;1999.90;999.90;;;20.90;99.90;;;;;;4932679;28;20161;-73
2022/05/17 08:24:11;;;;;;;1999.90;999.90;;;21.40;99.90;;;;;;4994581;28;20066;-73
2022/05/17 08:29:21;;;;;;;1999.90;999.90;;;22.50;99.90;;;;;;4946990;28;20045;-74
2022/05/17 08:33:14;;;;;;;1999.90;999.90;;;23.10;99.90;;;;;;4946473;28;20047;-73
2022/05/17 08:34:32;;;;;;;1999.90;999.90;;;23.60;99.90;;;;;;4950923;28;20145;-74
2022/05/17 08:36:57;;;;;;;1999.90;999.90;;;24.10;99.90;;;;;;4953866;28;20316;-74
2022/05/17 08:39:26;;;;;;;1999.90;999.90;;;24.40;99.90;;;;;;4941820;28;20050;-73
2022/05/17 08:42:29;;;;;;;1999.90;999.90;;;24.50;99.90;;;;;;4960917;28;20606;-73
2022/05/17 08:45:02;;;;;;;1999.90;999.90;;;24.60;99.90;;;;;;4896794;28;20115;-73
2022/05/17 08:47:51;;;;;;;1999.90;999.90;;;24.90;99.90;;;;;;4910480;29;20056;-74
2022/05/17 08:50:25;;;;;;;1999.90;999.90;;;25.10;99.60;;;;;;4917944;28;20129;-73
2022/05/17 08:52:53;;;;;;;1999.90;999.90;;;25.30;98.50;;;;;;4929819;28;20051;-73
2022/05/17 08:55:28;;;;;;;1999.90;999.90;;;25.30;98.40;;;;;;4929587;28;20089;-74
2022/05/17 08:57:57;;;;;;;1999.90;999.90;;;25.40;98.10;;;;;;4913185;28;20048;-73
2022/05/17 09:00:28;;;;;;;1999.90;999.90;;;25.50;97.10;;;;;;4918050;28;20075;-74
2022/05/17 09:03:18;;;;;;;1999.90;999.90;;;25.60;96.30;;;;;;4894812;28;20047;-73
2022/05/17 09:05:44;;;;;;;1999.90;999.90;;;25.50;95.80;;;;;;4968287;28;20047;-73
2022/05/17 09:08:34;;;;;;;1999.90;999.90;;;25.60;95.50;;;;;;4926234;28;20764;-73
2022/05/17 09:11:11;;;;;;;1999.90;999.90;;;25.80;95.00;;;;;;4928850;29;20499;-73
2022/05/17 09:13:46;;;;;;;1999.90;999.90;;;26.00;94.50;;;;;;4920730;28;20515;-74
2022/05/17 09:16:13;;;;;;;1999.90;999.90;;;26.20;92.50;;;;;;4929573;28;20569;-74
2022/05/17 09:18:39;;;;;;;1999.90;999.90;;;26.30;93.20;;;;;;4925332;28;20054;-74
2022/05/17 09:21:05;;;;;;;1999.90;999.90;;;26.30;92.80;;;;;;4951656;28;20059;-74
2022/05/17 09:23:31;;;;;;;1999.90;999.90;;;26.00;92.10;;;;;;5013128;28;20518;-74
2022/05/17 09:25:56;;;;;;;1999.90;999.90;;;25.80;89.60;;;;;;4974415;28;20057;-73
2022/05/17 09:28:32;;;;;;;1999.90;999.90;;;25.40;91.10;;;;;;4940018;28;20038;-73
2022/05/17 09:31:09;;;;;;;1999.90;999.90;;;25.30;91.00;;;;;;4956573;28;20417;-73
2022/05/17 09:33:38;;;;;;;1999.90;999.90;;;25.30;86.80;;;;;;4988393;28;20055;-73
2022/05/17 09:36:05;;;;;;;1999.90;999.90;;;25.20;87.60;;;;;;4986161;28;20043;-73
2022/05/17 09:38:35;;;;;;;1999.90;999.90;;;25.40;90.60;;;;;;4985816;28;20051;-73
2022/05/17 09:41:01;;;;;;;1999.90;999.90;;;25.70;88.20;;;;;;4945229;28;20388;-73
2022/05/17 09:43:38;;;;;;;1999.90;999.90;;;25.50;86.50;;;;;;4952768;28;20096;-73
2022/05/17 09:46:15;;;;;;;1999.90;999.90;;;25.00;86.80;;;;;;4974179;28;20045;-73
2022/05/17 09:54:46;;;;;;;1999.90;999.90;;;25.00;90.90;;;;;;4948920;28;20047;-73
2022/05/17 09:57:25;;;;;;;1999.90;999.90;;;25.30;85.80;;;;;;4960440;28;20085;-73
2022/05/17 09:59:54;;;;;;;1999.90;999.90;;;25.20;79.70;;;;;;4947712;28;20514;-73
2022/05/17 10:02:28;;;;;;;1999.90;999.90;;;24.90;80.80;;;;;;4976997;28;20039;-73
2022/05/17 10:04:55;;;;;;;1999.90;999.90;;;25.10;83.50;;;;;;4954759;28;20463;-73
2022/05/17 10:07:24;;;;;;;1999.90;999.90;;;25.30;84.10;;;;;;4948286;28;20117;-73
2022/05/17 10:09:50;;;;;;;1999.90;999.90;;;25.50;82.20;;;;;;4938542;28;20043;-73
2022/05/17 10:12:37;;;;;;;1999.90;999.90;;;25.70;86.20;;;;;;4948802;28;20055;-73
2022/05/17 10:15:10;;;;;;;1999.90;999.90;;;25.90;86.40;;;;;;4950747;28;20052;-73
2022/05/17 10:17:43;;;;;;;1999.90;999.90;;;26.20;80.90;;;;;;4943288;28;20090;-73
2022/05/17 10:20:17;;;;;;;1999.90;999.90;;;26.30;82.90;;;;;;4961798;28;20047;-73
2022/05/17 10:22:57;;;;;;;1999.90;999.90;;;26.30;80.00;;;;;;4949925;28;20047;-73
2022/05/17 10:25:44;;;;;;;1999.90;999.90;;;26.20;80.20;;;;;;5000386;28;20039;-73
2022/05/17 10:28:18;;;;;;;1999.90;999.90;;;26.20;82.00;;;;;;4953498;28;20054;-73
2022/05/17 10:31:11;;;;;;;1999.90;999.90;;;26.30;76.90;;;;;;4963449;28;20042;-73
2022/05/17 10:33:47;;;;;;;1999.90;999.90;;;26.30;72.90;;;;;;4959786;28;20038;-73
2022/05/17 10:36:23;;;;;;;1999.90;999.90;;;26.20;75.70;;;;;;5005327;28;20051;-73
2022/05/17 10:39:24;;;;;;;1999.90;999.90;;;26.10;71.80;;;;;;4966097;28;20041;-73
2022/05/17 10:41:51;;;;;;;1999.90;999.90;;;26.00;75.10;;;;;;4979779;28;20632;-74
2022/05/17 10:44:19;;;;;;;1999.90;999.90;;;26.20;75.10;;;;;;4958906;28;20534;-73
2022/05/17 10:47:03;;;;;;;1999.90;999.90;;;26.00;74.00;;;;;;4964882;28;20055;-73
2022/05/17 10:49:55;;;;;;;1999.90;999.90;;;26.10;75.10;;;;;;4967011;28;20054;-73
2022/05/17 10:52:24;;;;;;;1999.90;999.90;;;26.20;76.40;;;;;;4968858;28;20415;-73
2022/05/17 10:55:12;;;;;;;1999.90;999.90;;;26.40;73.80;;;;;;4951431;28;20043;-73
2022/05/17 10:57:40;;;;;;;1999.90;999.90;;;26.20;72.70;;;;;;4922467;28;20047;-73
2022/05/17 11:00:14;;;;;;;1999.90;999.90;;;26.30;74.10;;;;;;4945566;29;20131;-73
2022/05/17 11:02:52;;;;;;;1999.90;999.90;;;26.40;70.40;;;;;;4939742;28;20118;-73
2022/05/17 11:05:42;;;;;;;1999.90;999.90;;;26.30;70.80;;;;;;4931762;28;20044;-73
2022/05/17 11:08:28;;;;;;;1999.90;999.90;;;26.40;68.20;;;;;;4925470;28;20093;-73
2022/05/17 11:11:03;;;;;;;1999.90;999.90;;;26.50;69.20;;;;;;4931258;28;20048;-73
2022/05/17 11:13:31;;;;;;;1999.90;999.90;;;26.50;68.20;;;;;;4912078;28;20048;-73
2022/05/17 11:16:20;;;;;;;1999.90;999.90;;;26.40;67.00;;;;;;4912777;28;20044;-73
2022/05/17 11:19:03;;;;;;;1999.90;999.90;;;26.40;65.40;;;;;;4932260;28;20051;-73
2022/05/17 11:21:42;;;;;;;1999.90;999.90;;;26.30;65.80;;;;;;4925844;28;20040;-73
2022/05/17 11:24:58;;;;;;;1999.90;999.90;;;26.10;65.70;;;;;;4940993;28;20493;-73
2022/05/17 11:27:50;;;;;;;1999.90;999.90;;;26.00;68.30;;;;;;4958771;28;20100;-73
2022/05/17 11:30:19;;;;;;;1999.90;999.90;;;26.20;67.60;;;;;;4986245;28;20049;-73
2022/05/17 11:33:13;;;;;;;1999.90;999.90;;;26.40;64.50;;;;;;4975498;28;20048;-73
2022/05/17 11:35:46;;;;;;;1999.90;999.90;;;26.40;64.50;;;;;;4958144;28;20058;-73
2022/05/17 11:38:18;;;;;;;1999.90;999.90;;;26.40;62.70;;;;;;4967184;28;20047;-73
2022/05/17 11:40:47;;;;;;;1999.90;999.90;;;26.50;63.30;;;;;;4987518;28;20450;-73
2022/05/17 11:46:03;;;;;;;1999.90;999.90;;;26.50;63.60;;;;;;4995472;28;20080;-73
2022/05/17 11:48:52;;;;;;;1999.90;999.90;;;26.50;62.10;;;;;;4986808;28;20042;-73
2022/05/17 11:51:17;;;;;;;1999.90;999.90;;;26.60;61.70;;;;;;4905314;28;20060;-73
2022/05/17 11:53:46;;;;;;;1999.90;999.90;;;26.60;60.80;;;;;;4880842;28;20615;-73
2022/05/17 11:56:21;;;;;;;1999.90;999.90;;;26.60;58.50;;;;;;4871761;28;20079;-73
2022/05/17 11:58:54;;;;;;;1999.90;999.90;;;26.30;58.20;;;;;;4885884;28;20476;-73
2022/05/17 12:01:29;;;;;;;1999.90;999.90;;;26.30;59.10;;;;;;4895075;28;20054;-73
2022/05/17 12:04:07;;;;;;;1999.90;999.90;;;26.40;59.80;;;;;;4918792;28;20139;-73
2022/05/17 12:06:58;;;;;;;1999.90;999.90;;;26.60;60.10;;;;;;4961588;28;20055;-73
2022/05/17 12:09:24;;;;;;;1999.90;999.90;;;26.80;59.50;;;;;;4938778;28;20526;-73
2022/05/17 12:11:52;;;;;;;1999.90;999.90;;;27.10;60.40;;;;;;5014274;28;20055;-73
2022/05/17 12:14:45;;;;;;;1999.90;999.90;;;27.20;58.40;;;;;;4999545;28;20062;-73
2022/05/17 12:17:26;;;;;;;1999.90;999.90;;;27.40;58.80;;;;;;4966026;28;20105;-73
2022/05/17 12:20:00;;;;;;;1999.90;999.90;;;27.30;57.00;;;;;;4977996;28;20406;-73
2022/05/17 12:22:29;;;;;;;1999.90;999.90;;;27.40;57.70;;;;;;4940848;28;20118;-73
2022/05/17 12:25:10;;;;;;;1999.90;999.90;;;27.40;58.00;;;;;;4937921;28;20051;-73
2022/05/17 12:27:44;;;;;;;1999.90;999.90;;;27.30;56.20;;;;;;4915328;28;20087;-73
2022/05/17 12:33:22;;;;;;;1999.90;999.90;;;27.40;56.70;;;;;;4957159;28;20420;-73